BTI34K EVRA-EYVI
Flight info
| Callsign | BTI34K |
|---|---|
| Flight time | 0h 42m |
| Altitude | 21000 |
| Route | ERIVA DCT PIFBO |
| Aircraft | A320/M-SDE3FGHIRWY/LB1 |
Departure
| Time | 2026-05-08 10:38 |
|---|---|
| Airport | Riga International Airport (EVRA) |
Arrival
| Time | 2026-05-08 11:20 |
|---|---|
| Airport | Vilnius International Airport (EYVI) |
| Time | Latitude | Longitude | Altitude | Speed | Heading |
|---|---|---|---|---|---|
| 2026-05-08 10:21 | 56.92291 | 23.97672 | 37 ft | 0 kts | 184° |
| 2026-05-08 10:32 | 56.92313 | 23.97677 | 37 ft | 4 kts | 203° |
| 2026-05-08 10:32 | 56.92327 | 23.97693 | 37 ft | 4 kts | 226° |
| 2026-05-08 10:32 | 56.92341 | 23.97733 | 36 ft | 4 kts | 258° |
| 2026-05-08 10:32 | 56.92343 | 23.97778 | 37 ft | 2 kts | 275° |
| 2026-05-08 10:33 | 56.92343 | 23.97780 | 37 ft | 0 kts | 275° |
| 2026-05-08 10:34 | 56.92348 | 23.97660 | 37 ft | 22 kts | 275° |
| 2026-05-08 10:35 | 56.92307 | 23.97487 | 37 ft | 15 kts | 192° |
| 2026-05-08 10:35 | 56.92178 | 23.97468 | 37 ft | 21 kts | 186° |
| 2026-05-08 10:35 | 56.92039 | 23.97449 | 37 ft | 20 kts | 185° |
| 2026-05-08 10:35 | 56.91881 | 23.97431 | 37 ft | 23 kts | 177° |
| 2026-05-08 10:36 | 56.91684 | 23.97408 | 38 ft | 45 kts | 179° |
| 2026-05-08 10:36 | 56.91579 | 23.97373 | 38 ft | 20 kts | 210° |
| 2026-05-08 10:36 | 56.91484 | 23.97364 | 38 ft | 15 kts | 185° |
| 2026-05-08 10:36 | 56.91234 | 23.97324 | 38 ft | 55 kts | 184° |
| 2026-05-08 10:37 | 56.90950 | 23.97226 | 39 ft | 32 kts | 203° |
| 2026-05-08 10:37 | 56.90800 | 23.97159 | 39 ft | 12 kts | 184° |
| 2026-05-08 10:37 | 56.90715 | 23.97143 | 39 ft | 17 kts | 187° |
| 2026-05-08 10:37 | 56.90656 | 23.96905 | 36 ft | 25 kts | 295° |
| 2026-05-08 10:38 | 56.90830 | 23.96862 | 37 ft | 42 kts | 7° |
| 2026-05-08 10:38 | 56.91357 | 23.96946 | 41 ft | 107 kts | 5° |
| 2026-05-08 10:38 | 56.92269 | 23.97088 | 64 ft | 152 kts | 2° |
| 2026-05-08 10:38 | 56.93301 | 23.97227 | 832 ft | 144 kts | 5° |
| 2026-05-08 10:39 | 56.94303 | 23.97327 | 1637 ft | 148 kts | 9° |
| 2026-05-08 10:39 | 56.95409 | 23.97503 | 2132 ft | 171 kts | 11° |
| 2026-05-08 10:39 | 56.96678 | 23.97747 | 2672 ft | 195 kts | 11° |
| 2026-05-08 10:39 | 56.98111 | 23.98017 | 3176 ft | 219 kts | 11° |
| 2026-05-08 10:40 | 56.99709 | 23.98311 | 3698 ft | 241 kts | 11° |
| 2026-05-08 10:40 | 57.01406 | 23.98623 | 4553 ft | 249 kts | 10° |
| 2026-05-08 10:40 | 57.03153 | 23.98925 | 5531 ft | 253 kts | 9° |
| 2026-05-08 10:40 | 57.04897 | 23.99409 | 6465 ft | 254 kts | 24° |
| 2026-05-08 10:41 | 57.06275 | 24.01356 | 7288 ft | 255 kts | 57° |
| 2026-05-08 10:41 | 57.06794 | 24.04474 | 8118 ft | 262 kts | 85° |
| 2026-05-08 10:41 | 57.06801 | 24.07849 | 8991 ft | 268 kts | 91° |
| 2026-05-08 10:41 | 57.06679 | 24.11303 | 9842 ft | 273 kts | 93° |
| 2026-05-08 10:42 | 57.06509 | 24.14834 | 10511 ft | 286 kts | 97° |
| 2026-05-08 10:42 | 57.05909 | 24.18467 | 10801 ft | 312 kts | 113° |
| 2026-05-08 10:42 | 57.04759 | 24.21956 | 11091 ft | 335 kts | 126° |
| 2026-05-08 10:42 | 57.03126 | 24.25096 | 11697 ft | 346 kts | 139° |
| 2026-05-08 10:43 | 57.01158 | 24.27714 | 12389 ft | 352 kts | 144° |
| 2026-05-08 10:43 | 56.99126 | 24.30286 | 13078 ft | 358 kts | 144° |
| 2026-05-08 10:43 | 56.97021 | 24.32781 | 13808 ft | 363 kts | 151° |
| 2026-05-08 10:43 | 56.94676 | 24.34595 | 14506 ft | 367 kts | 163° |
| 2026-05-08 10:44 | 56.92177 | 24.35564 | 15198 ft | 369 kts | 171° |
| 2026-05-08 10:44 | 56.89633 | 24.36277 | 15945 ft | 370 kts | 171° |
| 2026-05-08 10:44 | 56.87137 | 24.37453 | 16664 ft | 372 kts | 161° |
| 2026-05-08 10:44 | 56.84778 | 24.39444 | 17332 ft | 375 kts | 154° |
| 2026-05-08 10:45 | 56.82462 | 24.41695 | 18010 ft | 378 kts | 153° |
| 2026-05-08 10:45 | 56.80130 | 24.43959 | 18633 ft | 381 kts | 153° |
| 2026-05-08 10:45 | 56.77780 | 24.46228 | 19156 ft | 384 kts | 154° |
| 2026-05-08 10:45 | 56.75403 | 24.48508 | 19706 ft | 387 kts | 154° |
| 2026-05-08 10:46 | 56.73013 | 24.50794 | 20250 ft | 389 kts | 154° |
| 2026-05-08 10:46 | 56.70563 | 24.52897 | 20778 ft | 390 kts | 162° |
| 2026-05-08 10:46 | 56.67960 | 24.54268 | 21131 ft | 389 kts | 169° |
| 2026-05-08 10:46 | 56.65310 | 24.55368 | 21203 ft | 396 kts | 170° |
| 2026-05-08 10:47 | 56.62602 | 24.56479 | 21215 ft | 401 kts | 170° |
| 2026-05-08 10:47 | 56.59876 | 24.57594 | 21214 ft | 402 kts | 170° |
| 2026-05-08 10:47 | 56.57146 | 24.58714 | 21213 ft | 402 kts | 170° |
| 2026-05-08 10:47 | 56.54418 | 24.59838 | 21208 ft | 401 kts | 170° |
| 2026-05-08 10:48 | 56.51703 | 24.60964 | 21208 ft | 401 kts | 169° |
| 2026-05-08 10:48 | 56.48965 | 24.61916 | 21205 ft | 399 kts | 176° |
| 2026-05-08 10:48 | 56.46203 | 24.62231 | 21205 ft | 398 kts | 179° |
| 2026-05-08 10:48 | 56.43437 | 24.62476 | 21204 ft | 398 kts | 179° |
| 2026-05-08 10:49 | 56.40672 | 24.62717 | 21203 ft | 398 kts | 179° |
| 2026-05-08 10:49 | 56.37907 | 24.62957 | 21202 ft | 398 kts | 179° |
| 2026-05-08 10:49 | 56.35182 | 24.63172 | 21194 ft | 397 kts | 180° |
| 2026-05-08 10:49 | 56.32418 | 24.63304 | 21190 ft | 397 kts | 181° |
| 2026-05-08 10:50 | 56.29657 | 24.63376 | 21190 ft | 397 kts | 181° |
| 2026-05-08 10:50 | 56.26895 | 24.63425 | 21189 ft | 397 kts | 181° |
| 2026-05-08 10:50 | 56.24135 | 24.63476 | 21189 ft | 397 kts | 181° |
| 2026-05-08 10:50 | 56.21372 | 24.63544 | 21188 ft | 397 kts | 181° |
| 2026-05-08 10:51 | 56.18611 | 24.63624 | 21188 ft | 397 kts | 181° |
| 2026-05-08 10:51 | 56.15851 | 24.63717 | 21187 ft | 397 kts | 181° |
| 2026-05-08 10:51 | 56.13088 | 24.63812 | 21187 ft | 397 kts | 181° |
| 2026-05-08 10:51 | 56.10328 | 24.63906 | 21162 ft | 397 kts | 181° |
| 2026-05-08 10:52 | 56.07565 | 24.63999 | 21159 ft | 397 kts | 181° |
| 2026-05-08 10:52 | 56.04794 | 24.64093 | 21158 ft | 398 kts | 181° |
| 2026-05-08 10:52 | 56.02029 | 24.64183 | 21158 ft | 398 kts | 181° |
| 2026-05-08 10:52 | 55.99255 | 24.64271 | 21161 ft | 398 kts | 181° |
| 2026-05-08 10:53 | 55.96484 | 24.64357 | 21162 ft | 399 kts | 181° |
| 2026-05-08 10:53 | 55.93706 | 24.64445 | 21163 ft | 399 kts | 181° |
| 2026-05-08 10:53 | 55.90934 | 24.64534 | 21165 ft | 399 kts | 181° |
| 2026-05-08 10:53 | 55.88158 | 24.64623 | 21167 ft | 399 kts | 181° |
| 2026-05-08 10:54 | 55.85386 | 24.64714 | 21157 ft | 399 kts | 181° |
| 2026-05-08 10:54 | 55.82649 | 24.64807 | 21159 ft | 399 kts | 181° |
| 2026-05-08 10:54 | 55.79878 | 24.64902 | 21160 ft | 399 kts | 181° |
| 2026-05-08 10:54 | 55.77068 | 24.64996 | 21161 ft | 399 kts | 181° |
| 2026-05-08 10:55 | 55.74295 | 24.65086 | 21159 ft | 399 kts | 181° |
| 2026-05-08 10:55 | 55.71557 | 24.65173 | 21160 ft | 399 kts | 181° |
| 2026-05-08 10:55 | 55.68782 | 24.65261 | 21167 ft | 399 kts | 180° |
| 2026-05-08 10:55 | 55.66013 | 24.65350 | 21172 ft | 398 kts | 180° |
| 2026-05-08 10:56 | 55.63244 | 24.65439 | 21167 ft | 398 kts | 180° |
| 2026-05-08 10:56 | 55.60476 | 24.65529 | 21165 ft | 397 kts | 180° |
| 2026-05-08 10:56 | 55.57716 | 24.65620 | 21160 ft | 397 kts | 180° |
| 2026-05-08 10:56 | 55.54949 | 24.65708 | 21160 ft | 397 kts | 180° |
| 2026-05-08 10:57 | 55.52192 | 24.65796 | 21163 ft | 396 kts | 180° |
| 2026-05-08 10:57 | 55.49436 | 24.65884 | 21149 ft | 396 kts | 180° |
| 2026-05-08 10:57 | 55.43927 | 24.66051 | 21152 ft | 396 kts | 180° |
| 2026-05-08 10:58 | 55.41177 | 24.66136 | 21155 ft | 395 kts | 180° |
| 2026-05-08 10:58 | 55.38430 | 24.66225 | 21157 ft | 394 kts | 179° |
| 2026-05-08 10:58 | 55.35689 | 24.66316 | 21161 ft | 393 kts | 179° |
| 2026-05-08 10:58 | 55.32956 | 24.66405 | 21159 ft | 393 kts | 180° |
| 2026-05-08 10:59 | 55.30229 | 24.66487 | 21157 ft | 390 kts | 180° |
| 2026-05-08 10:59 | 55.27550 | 24.66570 | 20975 ft | 378 kts | 179° |
| 2026-05-08 10:59 | 55.24970 | 24.66656 | 20796 ft | 364 kts | 179° |
| 2026-05-08 10:59 | 55.22486 | 24.66738 | 20593 ft | 352 kts | 179° |
| 2026-05-08 11:00 | 55.20041 | 24.66816 | 20028 ft | 347 kts | 179° |
| 2026-05-08 11:00 | 55.17710 | 24.66890 | 19866 ft | 324 kts | 179° |
| 2026-05-08 11:00 | 55.15504 | 24.66962 | 19393 ft | 313 kts | 179° |
| 2026-05-08 11:00 | 55.13338 | 24.67032 | 18753 ft | 310 kts | 179° |
| 2026-05-08 11:01 | 55.11189 | 24.67096 | 18106 ft | 306 kts | 179° |
| 2026-05-08 11:01 | 55.09072 | 24.67154 | 17444 ft | 302 kts | 179° |
| 2026-05-08 11:01 | 55.06999 | 24.67216 | 16741 ft | 301 kts | 179° |
| 2026-05-08 11:01 | 55.04917 | 24.67282 | 16102 ft | 298 kts | 179° |
| 2026-05-08 11:02 | 55.02835 | 24.67347 | 15396 ft | 300 kts | 178° |
| 2026-05-08 11:02 | 54.98669 | 24.67479 | 14109 ft | 299 kts | 178° |
| 2026-05-08 11:02 | 54.96593 | 24.67548 | 13460 ft | 297 kts | 175° |
| 2026-05-08 11:03 | 54.94585 | 24.68152 | 12837 ft | 291 kts | 160° |
| 2026-05-08 11:03 | 54.92779 | 24.69650 | 12181 ft | 287 kts | 144° |
| 2026-05-08 11:03 | 54.91284 | 24.71928 | 11518 ft | 285 kts | 129° |
| 2026-05-08 11:03 | 54.90183 | 24.74767 | 10912 ft | 282 kts | 119° |
| 2026-05-08 11:04 | 54.89200 | 24.77699 | 10296 ft | 280 kts | 120° |
| 2026-05-08 11:04 | 54.88255 | 24.80480 | 9713 ft | 277 kts | 120° |
| 2026-05-08 11:04 | 54.87278 | 24.83343 | 9047 ft | 274 kts | 118° |
| 2026-05-08 11:04 | 54.86315 | 24.86166 | 8439 ft | 270 kts | 119° |
| 2026-05-08 11:05 | 54.85353 | 24.88939 | 7784 ft | 267 kts | 122° |
| 2026-05-08 11:05 | 54.84104 | 24.91291 | 7192 ft | 265 kts | 139° |
| 2026-05-08 11:05 | 54.82522 | 24.92921 | 6642 ft | 264 kts | 155° |
| 2026-05-08 11:05 | 54.80800 | 24.93679 | 6495 ft | 248 kts | 170° |
| 2026-05-08 11:06 | 54.79230 | 24.93793 | 6370 ft | 233 kts | 175° |
| 2026-05-08 11:06 | 54.77636 | 24.93846 | 6238 ft | 218 kts | 174° |
| 2026-05-08 11:06 | 54.76182 | 24.93897 | 6134 ft | 199 kts | 174° |
| 2026-05-08 11:06 | 54.74855 | 24.93944 | 6013 ft | 182 kts | 173° |
| 2026-05-08 11:07 | 54.73640 | 24.93987 | 5862 ft | 168 kts | 173° |
| 2026-05-08 11:07 | 54.72512 | 24.94030 | 5715 ft | 156 kts | 172° |
| 2026-05-08 11:07 | 54.71458 | 24.94071 | 5496 ft | 149 kts | 173° |
| 2026-05-08 11:07 | 54.70422 | 24.94113 | 5225 ft | 149 kts | 173° |
| 2026-05-08 11:08 | 54.69400 | 24.94151 | 5122 ft | 147 kts | 172° |
| 2026-05-08 11:08 | 54.68371 | 24.94190 | 5111 ft | 148 kts | 171° |
| 2026-05-08 11:08 | 54.67336 | 24.94227 | 5112 ft | 149 kts | 172° |
| 2026-05-08 11:08 | 54.66302 | 24.94262 | 5107 ft | 148 kts | 172° |
| 2026-05-08 11:09 | 54.65273 | 24.94298 | 5100 ft | 147 kts | 171° |
| 2026-05-08 11:09 | 54.64254 | 24.94335 | 4861 ft | 147 kts | 171° |
| 2026-05-08 11:09 | 54.63242 | 24.94374 | 4741 ft | 144 kts | 171° |
| 2026-05-08 11:09 | 54.62228 | 24.94413 | 4816 ft | 147 kts | 171° |
| 2026-05-08 11:10 | 54.61198 | 24.94454 | 4890 ft | 149 kts | 172° |
| 2026-05-08 11:10 | 54.60173 | 24.94587 | 4957 ft | 147 kts | 164° |
| 2026-05-08 11:10 | 54.59204 | 24.94987 | 4979 ft | 144 kts | 155° |
| 2026-05-08 11:10 | 54.58288 | 24.95649 | 4952 ft | 142 kts | 147° |
| 2026-05-08 11:11 | 54.57462 | 24.96543 | 4811 ft | 139 kts | 137° |
| 2026-05-08 11:11 | 54.56730 | 24.97601 | 4686 ft | 136 kts | 133° |
| 2026-05-08 11:11 | 54.56009 | 24.98673 | 4560 ft | 137 kts | 133° |
| 2026-05-08 11:11 | 54.55290 | 24.99741 | 4425 ft | 136 kts | 133° |
| 2026-05-08 11:12 | 54.54573 | 25.00807 | 4298 ft | 136 kts | 132° |
| 2026-05-08 11:12 | 54.53862 | 25.01865 | 4169 ft | 135 kts | 133° |
| 2026-05-08 11:12 | 54.53154 | 25.02919 | 4039 ft | 134 kts | 132° |
| 2026-05-08 11:12 | 54.52449 | 25.03964 | 3912 ft | 133 kts | 132° |
| 2026-05-08 11:13 | 54.51747 | 25.05004 | 3787 ft | 133 kts | 132° |
| 2026-05-08 11:13 | 54.51048 | 25.06039 | 3659 ft | 132 kts | 132° |
| 2026-05-08 11:13 | 54.50350 | 25.07072 | 3541 ft | 132 kts | 132° |
| 2026-05-08 11:13 | 54.49654 | 25.08101 | 3410 ft | 132 kts | 131° |
| 2026-05-08 11:14 | 54.48961 | 25.09127 | 3282 ft | 132 kts | 131° |
| 2026-05-08 11:14 | 54.48266 | 25.10154 | 3149 ft | 132 kts | 131° |
| 2026-05-08 11:14 | 54.47573 | 25.11180 | 3070 ft | 131 kts | 131° |
| 2026-05-08 11:14 | 54.46982 | 25.12332 | 3013 ft | 127 kts | 114° |
| 2026-05-08 11:15 | 54.46695 | 25.13760 | 3016 ft | 128 kts | 95° |
| 2026-05-08 11:15 | 54.46741 | 25.15290 | 3012 ft | 130 kts | 75° |
| 2026-05-08 11:15 | 54.47129 | 25.16701 | 3011 ft | 132 kts | 55° |
| 2026-05-08 11:15 | 54.47857 | 25.17664 | 3007 ft | 137 kts | 27° |
| 2026-05-08 11:16 | 54.48714 | 25.18295 | 3004 ft | 132 kts | 31° |
| 2026-05-08 11:16 | 54.49554 | 25.18941 | 3001 ft | 132 kts | 30° |
| 2026-05-08 11:16 | 54.50400 | 25.19558 | 3006 ft | 132 kts | 29° |
| 2026-05-08 11:16 | 54.51245 | 25.20157 | 2944 ft | 131 kts | 28° |
| 2026-05-08 11:17 | 54.52090 | 25.20747 | 2817 ft | 131 kts | 27° |
| 2026-05-08 11:17 | 54.52933 | 25.21332 | 2663 ft | 130 kts | 26° |
| 2026-05-08 11:17 | 54.53772 | 25.21913 | 2492 ft | 130 kts | 26° |
| 2026-05-08 11:17 | 54.54606 | 25.22488 | 2319 ft | 130 kts | 26° |
| 2026-05-08 11:18 | 54.55159 | 25.22870 | 2204 ft | 129 kts | 25° |
| 2026-05-08 11:18 | 54.55991 | 25.23444 | 2029 ft | 129 kts | 25° |
| 2026-05-08 11:18 | 54.56827 | 25.24021 | 1849 ft | 129 kts | 25° |
| 2026-05-08 11:18 | 54.57663 | 25.24599 | 1664 ft | 129 kts | 25° |
| 2026-05-08 11:19 | 54.58495 | 25.25173 | 1473 ft | 128 kts | 23° |
| 2026-05-08 11:19 | 54.59331 | 25.25751 | 1284 ft | 131 kts | 24° |
| 2026-05-08 11:19 | 54.60170 | 25.26331 | 1114 ft | 129 kts | 23° |
| 2026-05-08 11:19 | 54.61003 | 25.26907 | 931 ft | 129 kts | 20° |
| 2026-05-08 11:20 | 54.61845 | 25.27489 | 764 ft | 129 kts | 23° |
| 2026-05-08 11:20 | 54.62677 | 25.28065 | 613 ft | 128 kts | 23° |
| 2026-05-08 11:20 | 54.63371 | 25.28548 | 609 ft | 81 kts | 22° |
| 2026-05-08 11:20 | 54.63762 | 25.28819 | 633 ft | 48 kts | 21° |
| 2026-05-08 11:21 | 54.64028 | 25.28999 | 644 ft | 36 kts | 21° |
| 2026-05-08 11:21 | 54.64239 | 25.29149 | 654 ft | 31 kts | 21° |
| 2026-05-08 11:21 | 54.64425 | 25.29271 | 656 ft | 21 kts | 12° |
| 2026-05-08 11:21 | 54.64481 | 25.29189 | 656 ft | 8 kts | 294° |
| 2026-05-08 11:22 | 54.64506 | 25.29100 | 656 ft | 10 kts | 297° |
| 2026-05-08 11:22 | 54.64549 | 25.28951 | 657 ft | 14 kts | 296° |
| 2026-05-08 11:22 | 54.64551 | 25.28796 | 656 ft | 13 kts | 259° |
| 2026-05-08 11:22 | 54.64529 | 25.28636 | 653 ft | 14 kts | 236° |
| 2026-05-08 11:23 | 54.64440 | 25.28637 | 651 ft | 13 kts | 171° |
| 2026-05-08 11:23 | 54.64352 | 25.28656 | 650 ft | 13 kts | 172° |
| 2026-05-08 11:23 | 54.64266 | 25.28673 | 651 ft | 12 kts | 174° |
| 2026-05-08 11:23 | 54.64216 | 25.28618 | 647 ft | 10 kts | 260° |
| 2026-05-08 11:24 | 54.64211 | 25.28479 | 642 ft | 13 kts | 267° |
| 2026-05-08 11:24 | 54.64185 | 25.28318 | 640 ft | 15 kts | 243° |
| 2026-05-08 11:24 | 54.64176 | 25.28231 | 637 ft | 7 kts | 280° |
| 2026-05-08 11:24 | 54.64211 | 25.28204 | 637 ft | 6 kts | 355° |
| 2026-05-08 11:25 | 54.64232 | 25.28203 | 640 ft | 1 kts | 358° |
| 2026-05-08 11:25 | 54.64238 | 25.28203 | 638 ft | 1 kts | 358° |
| 2026-05-08 11:25 | 54.64239 | 25.28203 | 638 ft | 0 kts | 360° |